createdAt,value
2018-12-21T00:01:44.833Z,29.57
2018-12-21T00:04:12.395Z,29.03
2018-12-21T00:06:39.928Z,32.20
2018-12-21T00:09:07.467Z,30.23
2018-12-21T00:11:35.010Z,28.33
2018-12-21T00:14:02.549Z,28.60
2018-12-21T00:16:30.442Z,33.77
2018-12-21T00:18:57.956Z,31.10
2018-12-21T00:21:25.491Z,26.60
2018-12-21T00:23:53.024Z,28.33
2018-12-21T00:26:20.624Z,28.43
2018-12-21T00:28:48.168Z,30.63
2018-12-21T00:31:21.258Z,30.53
2018-12-21T00:33:54.321Z,24.93
2018-12-21T00:36:27.569Z,27.87
2018-12-21T00:39:00.897Z,29.03
2018-12-21T00:41:28.193Z,30.17
2018-12-21T00:43:57.749Z,29.43
2018-12-21T00:46:25.507Z,28.97
2018-12-21T00:48:53.739Z,30.63
2018-12-21T00:51:21.281Z,28.10
2018-12-21T00:53:48.819Z,30.47
2018-12-21T00:56:16.355Z,32.87
2018-12-21T00:58:43.886Z,32.70
2018-12-21T01:01:11.405Z,34.43
2018-12-21T01:03:39.066Z,24.03
2018-12-21T01:06:06.610Z,26.17
2018-12-21T01:08:34.248Z,30.40
2018-12-21T01:11:01.794Z,27.83
2018-12-21T01:13:29.358Z,28.77
2018-12-21T01:15:56.881Z,33.90
2018-12-21T01:18:24.434Z,28.13
2018-12-21T01:20:51.978Z,33.23
2018-12-21T01:23:19.518Z,29.77
2018-12-21T01:25:47.056Z,32.43
2018-12-21T01:28:14.582Z,27.83
2018-12-21T01:30:42.230Z,28.97
2018-12-21T01:33:09.773Z,30.37
2018-12-21T01:35:37.288Z,26.03
2018-12-21T01:38:04.829Z,31.00
2018-12-21T01:40:32.647Z,28.50
2018-12-21T01:43:00.161Z,31.73
2018-12-21T01:45:27.701Z,27.40
2018-12-21T01:47:55.269Z,27.97
2018-12-21T01:50:22.810Z,26.30
2018-12-21T01:52:50.337Z,29.37
2018-12-21T01:55:17.875Z,27.60
2018-12-21T01:57:45.437Z,29.33
2018-12-21T02:00:12.992Z,31.63
2018-12-21T02:02:40.514Z,29.20
2018-12-21T02:05:08.294Z,25.63
2018-12-21T02:07:35.840Z,28.47
2018-12-21T02:10:05.907Z,27.83
2018-12-21T02:12:33.686Z,26.30
2018-12-21T02:15:01.260Z,27.17
2018-12-21T02:17:29.139Z,29.17
2018-12-21T02:19:56.671Z,22.90
2018-12-21T02:22:24.214Z,25.93
2018-12-21T02:24:51.762Z,25.30
2018-12-21T02:27:19.290Z,25.83
2018-12-21T02:29:46.821Z,25.23
2018-12-21T02:32:14.383Z,23.30
2018-12-21T02:34:42.050Z,24.70
2018-12-21T02:37:09.569Z,23.57
2018-12-21T02:39:37.114Z,27.20
2018-12-21T02:42:04.674Z,27.60
2018-12-21T02:44:32.557Z,24.23
2018-12-21T02:47:00.078Z,25.30
2018-12-21T02:49:27.623Z,24.27
2018-12-21T02:51:55.164Z,26.10
2018-12-21T02:54:22.724Z,28.80
2018-12-21T02:56:50.246Z,26.83
2018-12-21T02:59:17.784Z,21.80
2018-12-21T03:01:45.320Z,25.77
2018-12-21T03:04:13.246Z,26.97
2018-12-21T03:06:40.786Z,27.93
2018-12-21T03:09:09.064Z,25.03
2018-12-21T03:11:36.624Z,24.63
2018-12-21T03:14:04.276Z,25.30
2018-12-21T03:16:32.158Z,26.70
2018-12-21T03:18:59.686Z,30.87
2018-12-21T03:21:27.333Z,23.33
2018-12-21T03:23:54.886Z,26.20
2018-12-21T03:26:22.425Z,28.23
2018-12-21T03:28:49.970Z,30.97
2018-12-21T03:31:17.527Z,26.70
2018-12-21T03:33:45.076Z,27.40
2018-12-21T03:36:12.642Z,28.17
2018-12-21T03:38:40.171Z,29.17
2018-12-21T03:41:07.787Z,28.17
2018-12-21T03:43:35.333Z,28.60
2018-12-21T03:46:02.910Z,25.80
2018-12-21T03:48:30.466Z,28.40
2018-12-21T03:50:58.077Z,25.57
2018-12-21T03:53:25.601Z,24.67
2018-12-21T03:55:53.123Z,31.17
2018-12-21T03:58:20.663Z,24.87
2018-12-21T04:00:48.226Z,28.53
2018-12-21T04:03:15.784Z,26.20
2018-12-21T04:05:43.327Z,30.33
2018-12-21T04:08:10.876Z,25.63
2018-12-21T04:10:38.446Z,24.90
2018-12-21T04:13:06.044Z,25.37
2018-12-21T04:15:33.849Z,28.30
2018-12-21T04:18:01.397Z,26.80
2018-12-21T04:20:28.943Z,28.53
2018-12-21T04:22:56.572Z,25.77
2018-12-21T04:25:24.117Z,22.77
2018-12-21T04:27:51.683Z,21.53
2018-12-21T04:30:19.228Z,24.40
2018-12-21T04:32:46.812Z,28.43
2018-12-21T04:35:14.371Z,23.03
2018-12-21T04:37:41.918Z,25.47
2018-12-21T04:40:09.463Z,25.97
2018-12-21T04:42:37.022Z,28.83
2018-12-21T04:45:05.281Z,24.73
2018-12-21T04:47:32.828Z,22.83
2018-12-21T04:50:00.364Z,23.60
2018-12-21T04:52:27.883Z,29.10
2018-12-21T04:54:55.606Z,23.03
2018-12-21T04:57:23.162Z,24.07
2018-12-21T04:59:50.748Z,26.70
2018-12-21T05:02:18.565Z,23.57
2018-12-21T05:04:46.236Z,25.87
2018-12-21T05:07:13.780Z,27.57
2018-12-21T05:09:41.318Z,24.30
2018-12-21T05:12:08.859Z,24.43
2018-12-21T05:14:36.425Z,26.17
2018-12-21T05:17:04.014Z,22.83
2018-12-21T05:19:31.565Z,23.70
2018-12-21T05:21:59.395Z,21.70
2018-12-21T05:24:26.914Z,25.73
2018-12-21T05:26:54.465Z,24.93
2018-12-21T05:29:21.986Z,27.23
2018-12-21T05:31:49.533Z,26.63
2018-12-21T05:34:17.172Z,25.50
2018-12-21T05:36:44.755Z,23.40
2018-12-21T05:39:12.304Z,24.37
2018-12-21T05:41:39.830Z,24.57
2018-12-21T05:44:07.364Z,20.50
2018-12-21T05:46:35.011Z,23.33
2018-12-21T05:49:02.574Z,25.70
2018-12-21T05:51:30.112Z,23.40
2018-12-21T05:53:57.655Z,24.63
2018-12-21T05:56:25.195Z,24.33
2018-12-21T05:58:52.735Z,22.47
2018-12-21T06:01:20.280Z,25.17
2018-12-21T06:03:47.818Z,25.20
2018-12-21T06:06:15.362Z,27.40
2018-12-21T06:08:42.926Z,27.43
2018-12-21T06:11:10.464Z,23.53
2018-12-21T06:13:38.011Z,22.37
2018-12-21T06:16:05.548Z,25.70
2018-12-21T06:18:33.066Z,27.50
2018-12-21T06:21:00.669Z,27.77
2018-12-21T06:23:28.242Z,23.13
2018-12-21T06:25:55.783Z,22.30
2018-12-21T06:28:23.330Z,22.47
2018-12-21T06:30:50.879Z,21.70
2018-12-21T06:33:18.423Z,22.67
2018-12-21T06:35:45.938Z,20.83
2018-12-21T06:38:13.470Z,26.63
2018-12-21T06:40:41.008Z,23.20
2018-12-21T06:43:08.556Z,23.20
2018-12-21T06:45:36.115Z,23.53
2018-12-21T06:48:03.636Z,20.17
2018-12-21T06:50:31.199Z,23.67
2018-12-21T06:52:58.743Z,22.00
2018-12-21T06:55:26.289Z,24.20
2018-12-21T06:57:53.837Z,22.33
2018-12-21T07:00:21.374Z,22.90
2018-12-21T07:02:48.930Z,22.50
2018-12-21T07:05:16.484Z,22.00
2018-12-21T07:07:44.022Z,17.73
2018-12-21T07:10:11.554Z,18.77
2018-12-21T07:12:39.099Z,22.97
2018-12-21T07:15:07.057Z,22.97
2018-12-21T07:17:34.603Z,21.53
2018-12-21T07:20:02.148Z,22.73
2018-12-21T07:22:29.688Z,24.60
2018-12-21T07:24:57.197Z,20.63
2018-12-21T07:27:24.723Z,25.37
2018-12-21T07:29:52.269Z,23.17
2018-12-21T07:32:19.810Z,21.83
2018-12-21T07:34:47.355Z,25.77
2018-12-21T07:37:14.897Z,20.20
2018-12-21T07:39:42.446Z,21.90
2018-12-21T07:42:09.980Z,24.00
2018-12-21T07:44:37.493Z,23.80
2018-12-21T07:47:05.008Z,19.97
2018-12-21T07:49:32.554Z,23.47
2018-12-21T07:52:00.095Z,20.27
2018-12-21T07:54:27.648Z,23.00
2018-12-21T07:56:55.175Z,25.87
2018-12-21T07:59:22.701Z,24.07
2018-12-21T08:01:50.300Z,23.20
2018-12-21T08:04:17.844Z,21.90
2018-12-21T08:06:45.367Z,19.03
2018-12-21T08:09:12.924Z,23.00
2018-12-21T08:11:40.465Z,22.93
2018-12-21T08:14:08.017Z,22.30
2018-12-21T08:16:35.569Z,21.53
2018-12-21T08:19:03.131Z,19.97
2018-12-21T08:21:30.694Z,21.83
2018-12-21T08:23:58.230Z,23.87
2018-12-21T08:26:25.760Z,27.37
2018-12-21T08:28:53.309Z,25.13
2018-12-21T08:31:20.846Z,22.03
2018-12-21T08:33:48.392Z,20.00
2018-12-21T08:36:15.959Z,20.83
2018-12-21T08:38:43.500Z,19.43
2018-12-21T08:41:11.035Z,23.20
2018-12-21T08:43:38.590Z,20.77
2018-12-21T08:46:06.148Z,20.13
2018-12-21T08:48:33.821Z,19.83
2018-12-21T08:51:01.359Z,19.43
2018-12-21T08:53:28.905Z,19.13
2018-12-21T08:55:56.438Z,22.57
2018-12-21T08:58:23.994Z,21.30
2018-12-21T09:00:51.538Z,23.43
2018-12-21T09:03:19.102Z,27.20
2018-12-21T09:05:46.656Z,22.23
2018-12-21T09:08:14.195Z,20.20
2018-12-21T09:10:41.741Z,21.17
2018-12-21T09:13:09.262Z,23.83
2018-12-21T09:15:36.911Z,20.40
2018-12-21T09:18:04.446Z,21.97
2018-12-21T09:20:31.987Z,19.50
2018-12-21T09:22:59.520Z,17.70
2018-12-21T09:25:27.086Z,20.10
2018-12-21T09:27:54.623Z,18.80
2018-12-21T09:30:22.172Z,19.57
2018-12-21T09:32:49.702Z,18.67
2018-12-21T09:35:17.230Z,21.10
2018-12-21T09:37:44.774Z,18.77
2018-12-21T09:40:12.532Z,21.93
2018-12-21T09:42:40.081Z,20.80
2018-12-21T09:45:07.619Z,18.53
2018-12-21T09:47:35.200Z,19.40
2018-12-21T09:50:03.079Z,19.40
2018-12-21T09:52:30.729Z,17.57
2018-12-21T09:54:58.255Z,18.30
2018-12-21T09:57:25.774Z,16.80
2018-12-21T09:59:53.342Z,18.40
2018-12-21T10:02:20.914Z,18.00
2018-12-21T10:04:48.480Z,19.03
2018-12-21T10:07:16.036Z,17.20
2018-12-21T10:09:43.576Z,20.10
2018-12-21T10:12:11.113Z,17.17
2018-12-21T10:14:38.666Z,15.53
2018-12-21T10:17:06.222Z,16.90
2018-12-21T10:19:33.772Z,18.67
2018-12-21T10:22:01.362Z,15.20
2018-12-21T10:24:29.182Z,15.70
2018-12-21T10:26:56.732Z,17.27
2018-12-21T10:29:24.302Z,17.37
2018-12-21T10:31:52.544Z,14.87
2018-12-21T10:34:20.101Z,15.67
2018-12-21T10:36:47.638Z,17.50
2018-12-21T10:39:15.191Z,16.80
2018-12-21T10:41:42.743Z,17.67
2018-12-21T10:44:10.312Z,16.00
2018-12-21T10:46:37.866Z,18.97
2018-12-21T10:49:05.430Z,15.40
2018-12-21T10:51:33.003Z,15.27
2018-12-21T10:54:00.562Z,15.53
2018-12-21T10:56:28.099Z,14.03
2018-12-21T10:58:55.671Z,14.47
2018-12-21T11:01:23.232Z,15.70
2018-12-21T11:03:50.788Z,16.50
2018-12-21T11:06:18.394Z,17.57
2018-12-21T11:08:45.956Z,17.50
2018-12-21T11:11:14.943Z,15.40
2018-12-21T11:13:42.681Z,16.37
2018-12-21T11:16:10.260Z,17.07
2018-12-21T11:18:37.820Z,17.23
2018-12-21T11:21:05.380Z,17.30
2018-12-21T11:23:32.928Z,15.60
2018-12-21T11:26:01.432Z,16.37
2018-12-21T11:28:28.971Z,15.80
2018-12-21T11:30:56.525Z,17.07
2018-12-21T11:33:24.066Z,17.50
2018-12-21T11:35:51.605Z,14.60
2018-12-21T11:38:19.135Z,16.50
2018-12-21T11:40:46.684Z,17.83
2018-12-21T11:43:14.242Z,16.83
2018-12-21T11:45:41.833Z,16.50
2018-12-21T11:48:09.395Z,18.17
2018-12-21T11:50:36.930Z,16.90
2018-12-21T11:53:04.476Z,16.80
2018-12-21T11:55:32.016Z,16.83
2018-12-21T11:57:59.562Z,15.40
2018-12-21T12:00:27.092Z,15.43
2018-12-21T12:02:54.661Z,19.10
2018-12-21T12:05:22.224Z,13.73
2018-12-21T12:07:49.767Z,17.30
2018-12-21T12:10:17.331Z,15.13
2018-12-21T12:12:44.895Z,14.67
2018-12-21T12:15:12.427Z,17.17
2018-12-21T12:17:39.969Z,18.13
2018-12-21T12:20:07.631Z,16.53
2018-12-21T12:22:35.177Z,17.50
2018-12-21T12:25:02.965Z,17.27
2018-12-21T12:27:30.517Z,16.20
2018-12-21T12:29:58.334Z,19.37
2018-12-21T12:32:25.880Z,18.37
2018-12-21T12:34:53.423Z,18.40
2018-12-21T12:37:20.970Z,15.07
2018-12-21T12:39:48.520Z,17.43
2018-12-21T12:42:16.071Z,18.00
2018-12-21T12:44:43.624Z,17.57
2018-12-21T12:47:11.191Z,16.40
2018-12-21T12:49:38.733Z,16.90
2018-12-21T12:52:06.335Z,16.40
2018-12-21T12:54:33.872Z,16.77
2018-12-21T12:57:01.684Z,17.73
2018-12-21T12:59:29.221Z,14.87
2018-12-21T13:01:58.460Z,18.00
2018-12-21T13:04:26.291Z,15.03
2018-12-21T13:06:53.865Z,18.13
2018-12-21T13:09:21.397Z,17.13
2018-12-21T13:11:48.952Z,14.97
2018-12-21T13:14:16.709Z,17.10
2018-12-21T13:16:44.389Z,14.93
2018-12-21T13:19:11.949Z,18.47
2018-12-21T13:21:39.503Z,16.47
2018-12-21T13:24:07.076Z,17.53
2018-12-21T13:26:34.686Z,16.53
2018-12-21T13:29:02.252Z,17.80
2018-12-21T13:31:29.792Z,18.43
2018-12-21T13:33:57.352Z,19.03
2018-12-21T13:36:24.901Z,17.63
2018-12-21T13:38:52.442Z,16.93
2018-12-21T13:41:19.954Z,17.53
2018-12-21T13:43:47.498Z,16.83
2018-12-21T13:46:15.044Z,17.47
2018-12-21T13:48:42.578Z,16.27
2018-12-21T13:51:10.110Z,16.80
2018-12-21T13:53:38.214Z,16.00
2018-12-21T13:56:05.795Z,17.70
2018-12-21T13:58:33.347Z,16.27
2018-12-21T14:01:00.899Z,16.03
2018-12-21T14:03:28.434Z,17.03
2018-12-21T14:05:55.986Z,16.67
2018-12-21T14:08:23.534Z,15.37
2018-12-21T14:10:51.106Z,18.30
2018-12-21T14:13:18.654Z,17.67
2018-12-21T14:15:46.202Z,16.83
2018-12-21T14:18:13.784Z,17.87
2018-12-21T14:20:41.342Z,16.23
2018-12-21T14:23:08.891Z,17.03
2018-12-21T14:25:36.714Z,17.63
2018-12-21T14:28:04.296Z,17.50
2018-12-21T14:30:31.843Z,17.90
2018-12-21T14:32:59.406Z,18.53
2018-12-21T14:35:27.083Z,16.77
2018-12-21T14:37:54.620Z,16.00
2018-12-21T14:40:22.172Z,20.57
2018-12-21T14:42:49.716Z,17.40
2018-12-21T14:45:17.245Z,20.07
2018-12-21T14:47:44.783Z,16.20
2018-12-21T14:50:12.341Z,14.87
2018-12-21T14:52:39.894Z,17.17
2018-12-21T14:55:07.621Z,16.80
2018-12-21T14:57:35.160Z,20.07
2018-12-21T15:00:05.316Z,16.00
2018-12-21T15:02:32.869Z,17.53
2018-12-21T15:05:00.466Z,16.30
2018-12-21T15:07:28.003Z,16.37
2018-12-21T15:09:55.544Z,17.30
2018-12-21T15:12:23.083Z,15.33
2018-12-21T15:14:50.678Z,18.83
2018-12-21T15:17:18.196Z,18.03
2018-12-21T15:19:45.742Z,19.20
2018-12-21T15:22:13.289Z,21.17
2018-12-21T15:24:40.875Z,18.00
2018-12-21T15:27:08.412Z,19.40
2018-12-21T15:29:35.940Z,18.60
2018-12-21T15:32:03.525Z,18.47
2018-12-21T15:34:31.118Z,17.80
2018-12-21T15:36:58.779Z,21.80
2018-12-21T15:39:26.330Z,15.77
2018-12-21T15:41:53.859Z,19.77
2018-12-21T15:44:21.395Z,14.67
2018-12-21T15:46:48.924Z,17.93
2018-12-21T15:49:16.461Z,17.00
2018-12-21T15:51:44.006Z,16.90
2018-12-21T15:54:11.552Z,18.43
2018-12-21T15:56:39.079Z,15.53
2018-12-21T15:59:06.720Z,20.27
2018-12-21T16:01:37.056Z,17.13
2018-12-21T16:04:03.850Z,16.37
2018-12-21T16:06:31.387Z,15.13
2018-12-21T16:08:58.940Z,14.17
2018-12-21T16:11:26.498Z,16.53
2018-12-21T16:13:54.035Z,16.07
2018-12-21T16:16:21.556Z,15.23
2018-12-21T16:18:49.080Z,16.60
2018-12-21T16:21:16.623Z,19.07
2018-12-21T16:23:44.140Z,17.43
2018-12-21T16:26:11.664Z,17.63
2018-12-21T16:28:39.203Z,14.53
2018-12-21T16:31:06.733Z,17.00
2018-12-21T16:33:34.276Z,20.07
2018-12-21T16:36:01.799Z,17.10
2018-12-21T16:38:29.314Z,15.77
2018-12-21T16:40:56.848Z,16.80
2018-12-21T16:43:24.381Z,19.07
2018-12-21T16:45:51.913Z,17.10
2018-12-21T16:48:19.441Z,20.93
2018-12-21T16:50:46.990Z,17.37
2018-12-21T16:53:14.546Z,19.10
2018-12-21T16:55:42.083Z,18.33
2018-12-21T16:58:09.618Z,18.57
2018-12-21T17:00:37.178Z,16.10
2018-12-21T17:03:04.807Z,14.63
2018-12-21T17:05:32.354Z,18.33
2018-12-21T17:07:59.906Z,20.23
2018-12-21T17:10:27.733Z,19.07
2018-12-21T17:12:55.249Z,18.43
2018-12-21T17:15:22.780Z,16.00
2018-12-21T17:17:50.304Z,18.37
2018-12-21T17:20:17.829Z,16.63
2018-12-21T17:22:46.327Z,15.53
2018-12-21T17:25:13.982Z,13.90
2018-12-21T17:27:41.530Z,16.87
2018-12-21T17:30:09.576Z,16.50
2018-12-21T17:32:37.218Z,18.60
2018-12-21T17:35:06.479Z,15.80
2018-12-21T17:37:34.120Z,17.17
2018-12-21T17:40:01.688Z,15.67
2018-12-21T17:42:29.215Z,17.50
2018-12-21T17:44:56.841Z,15.13
2018-12-21T17:47:24.405Z,14.73
2018-12-21T17:49:51.948Z,12.53
2018-12-21T17:52:19.590Z,14.07
2018-12-21T17:54:47.135Z,16.53
2018-12-21T17:57:14.680Z,14.03
2018-12-21T17:59:42.200Z,14.03
2018-12-21T18:02:09.741Z,17.60
2018-12-21T18:04:37.288Z,12.23
2018-12-21T18:07:04.823Z,12.60
2018-12-21T18:09:32.348Z,14.70
2018-12-21T18:11:59.883Z,13.33
2018-12-21T18:14:27.410Z,14.30
2018-12-21T18:16:54.958Z,12.97
2018-12-21T18:19:22.517Z,11.53
2018-12-21T18:21:50.044Z,11.50
2018-12-21T18:24:17.584Z,11.10
2018-12-21T18:26:45.117Z,9.27
2018-12-21T18:29:12.633Z,8.87
2018-12-21T18:31:44.169Z,9.70
2018-12-21T18:34:14.742Z,12.07
2018-12-21T18:36:42.286Z,8.90
2018-12-21T18:39:09.827Z,9.20
2018-12-21T18:41:37.367Z,11.07
2018-12-21T18:44:04.911Z,10.13
2018-12-21T18:46:32.498Z,11.73
2018-12-21T18:49:00.085Z,9.80
2018-12-21T18:51:27.624Z,10.67
2018-12-21T18:53:55.165Z,13.93
2018-12-21T18:56:23.262Z,15.83
2018-12-21T18:58:50.789Z,12.67
2018-12-21T19:01:18.328Z,13.00
2018-12-21T19:03:45.864Z,11.50
2018-12-21T19:06:13.477Z,12.17
2018-12-21T19:08:41.005Z,11.80
2018-12-21T19:11:08.630Z,12.03
2018-12-21T19:13:36.161Z,14.50
2018-12-21T19:16:03.802Z,13.70
2018-12-21T19:18:31.327Z,11.53
2018-12-21T19:20:58.861Z,9.93
2018-12-21T19:23:26.410Z,13.60
2018-12-21T19:25:54.204Z,11.13
2018-12-21T19:28:21.742Z,12.30
2018-12-21T19:30:49.294Z,10.83
2018-12-21T19:33:16.865Z,9.23
2018-12-21T19:35:44.419Z,9.50
2018-12-21T19:38:11.952Z,9.40
2018-12-21T19:40:39.465Z,13.10
2018-12-21T19:43:07.002Z,13.87
2018-12-21T19:45:34.579Z,12.17
2018-12-21T19:48:02.104Z,14.40
2018-12-21T19:50:29.653Z,10.80
2018-12-21T19:52:57.183Z,11.73
2018-12-21T19:55:29.625Z,19.13
2018-12-21T19:57:57.172Z,30.60
2018-12-21T20:00:24.716Z,25.17
2018-12-21T20:02:52.279Z,19.53
2018-12-21T20:05:19.820Z,26.73
2018-12-21T20:07:47.363Z,20.43
2018-12-21T20:10:14.937Z,21.20
2018-12-21T20:12:42.451Z,26.47
2018-12-21T20:15:09.972Z,11.23
2018-12-21T20:17:37.512Z,9.90
2018-12-21T20:20:07.656Z,9.30
2018-12-21T20:22:35.166Z,8.87
2018-12-21T20:25:03.037Z,11.13
2018-12-21T20:27:30.567Z,8.10
2018-12-21T20:29:58.107Z,10.50
2018-12-21T20:32:25.651Z,12.73
2018-12-21T20:34:53.189Z,9.27
2018-12-21T20:37:20.745Z,8.83
2018-12-21T20:39:48.280Z,10.53
2018-12-21T20:42:15.805Z,9.80
2018-12-21T20:44:43.338Z,11.03
2018-12-21T20:47:11.003Z,11.53
2018-12-21T20:49:38.517Z,8.83
2018-12-21T20:52:06.033Z,8.33
2018-12-21T20:54:33.551Z,8.63
2018-12-21T20:57:01.098Z,9.33
2018-12-21T20:59:28.625Z,9.13
2018-12-21T21:01:56.287Z,10.90
2018-12-21T21:04:23.831Z,11.93
2018-12-21T21:06:51.353Z,23.27
2018-12-21T21:09:18.896Z,13.40
2018-12-21T21:11:46.435Z,9.23
2018-12-21T21:14:13.971Z,6.63
2018-12-21T21:16:41.508Z,11.07
2018-12-21T21:19:09.173Z,7.63
2018-12-21T21:21:36.736Z,10.43
2018-12-21T21:24:04.267Z,9.80
2018-12-21T21:26:31.795Z,9.87
2018-12-21T21:28:59.337Z,8.87
2018-12-21T21:31:26.868Z,26.10
2018-12-21T21:33:54.405Z,12.83
2018-12-21T21:36:21.952Z,8.43
2018-12-21T21:38:49.483Z,9.90
2018-12-21T21:41:17.003Z,7.23
2018-12-21T21:43:44.511Z,8.40
2018-12-21T21:46:12.065Z,6.30
2018-12-21T21:48:39.600Z,6.90
2018-12-21T21:51:07.138Z,8.50
2018-12-21T21:53:34.679Z,9.40
2018-12-21T21:56:02.226Z,7.60
2018-12-21T21:58:29.742Z,5.90
2018-12-21T22:00:57.383Z,7.53
2018-12-21T22:03:24.930Z,7.27
2018-12-21T22:05:52.496Z,9.80
2018-12-21T22:08:20.045Z,8.03
2018-12-21T22:10:47.590Z,8.30
2018-12-21T22:13:15.143Z,7.20
2018-12-21T22:15:42.959Z,6.77
2018-12-21T22:18:10.505Z,7.43
2018-12-21T22:20:38.034Z,6.83
2018-12-21T22:23:05.572Z,6.17
2018-12-21T22:25:33.118Z,7.83
2018-12-21T22:28:00.670Z,6.50
2018-12-21T22:30:28.197Z,9.30
2018-12-21T22:32:55.707Z,8.67
2018-12-21T22:35:23.249Z,8.87
2018-12-21T22:37:50.769Z,9.03
2018-12-21T22:40:18.292Z,7.00
2018-12-21T22:42:45.827Z,6.03
2018-12-21T22:45:13.663Z,8.30
2018-12-21T22:47:41.187Z,8.53
2018-12-21T22:50:08.865Z,7.47
2018-12-21T22:52:36.508Z,8.60
2018-12-21T22:55:05.135Z,7.03
2018-12-21T22:57:32.677Z,6.53
2018-12-21T23:00:00.203Z,7.53
2018-12-21T23:02:27.759Z,6.93
2018-12-21T23:04:55.310Z,7.03
2018-12-21T23:07:22.837Z,7.27
2018-12-21T23:09:50.434Z,7.33
2018-12-21T23:12:17.961Z,9.03
2018-12-21T23:14:45.495Z,13.63
2018-12-21T23:17:13.067Z,8.07
2018-12-21T23:19:40.595Z,7.90
2018-12-21T23:22:08.116Z,7.60
2018-12-21T23:24:35.659Z,8.23
2018-12-21T23:27:03.296Z,8.13
2018-12-21T23:29:30.829Z,6.60
2018-12-21T23:31:58.353Z,7.93
2018-12-21T23:34:25.899Z,5.83
2018-12-21T23:36:53.553Z,6.00
2018-12-21T23:39:21.071Z,8.57
2018-12-21T23:41:48.624Z,9.80
2018-12-21T23:44:16.145Z,8.00
2018-12-21T23:46:43.690Z,6.67
2018-12-21T23:49:11.200Z,6.00
2018-12-21T23:51:38.741Z,7.13
2018-12-21T23:54:06.291Z,6.07
2018-12-21T23:56:34.825Z,8.63
2018-12-21T23:59:02.341Z,6.10
